sensor_id;sensor_type;location;lat;lon;timestamp;P1;durP1;ratioP1;P2;durP2;ratioP2
32946;SDS011;54465;51.230;22.504;2023-04-23T00:03:16;4.80;;;3.35;;
32946;SDS011;54465;51.230;22.504;2023-04-23T00:08:18;10.40;;;3.90;;
32946;SDS011;54465;51.230;22.504;2023-04-23T00:13:19;7.07;;;4.50;;
32946;SDS011;54465;51.230;22.504;2023-04-23T00:18:20;7.05;;;4.25;;
32946;SDS011;54465;51.230;22.504;2023-04-23T00:23:20;8.43;;;3.88;;
32946;SDS011;54465;51.230;22.504;2023-04-23T00:28:21;8.40;;;4.47;;
32946;SDS011;54465;51.230;22.504;2023-04-23T00:33:21;6.82;;;3.78;;
32946;SDS011;54465;51.230;22.504;2023-04-23T00:38:22;5.25;;;3.40;;
32946;SDS011;54465;51.230;22.504;2023-04-23T00:43:22;4.47;;;3.08;;
32946;SDS011;54465;51.230;22.504;2023-04-23T00:48:23;6.13;;;3.25;;
32946;SDS011;54465;51.230;22.504;2023-04-23T00:53:23;7.28;;;3.75;;
32946;SDS011;54465;51.230;22.504;2023-04-23T00:58:24;6.38;;;4.05;;
32946;SDS011;54465;51.230;22.504;2023-04-23T01:03:25;7.15;;;3.83;;
32946;SDS011;54465;51.230;22.504;2023-04-23T01:08:26;6.05;;;3.55;;
32946;SDS011;54465;51.230;22.504;2023-04-23T01:13:28;5.80;;;4.05;;
32946;SDS011;54465;51.230;22.504;2023-04-23T01:18:29;5.53;;;3.97;;
32946;SDS011;54465;51.230;22.504;2023-04-23T01:23:30;9.15;;;4.20;;
32946;SDS011;54465;51.230;22.504;2023-04-23T01:28:30;8.55;;;4.93;;
32946;SDS011;54465;51.230;22.504;2023-04-23T01:33:31;11.15;;;4.88;;
32946;SDS011;54465;51.230;22.504;2023-04-23T01:38:32;10.38;;;5.75;;
32946;SDS011;54465;51.230;22.504;2023-04-23T01:43:33;8.88;;;5.13;;
32946;SDS011;54465;51.230;22.504;2023-04-23T01:48:34;9.18;;;5.55;;
32946;SDS011;54465;51.230;22.504;2023-04-23T01:53:35;10.93;;;5.03;;
32946;SDS011;54465;51.230;22.504;2023-04-23T01:58:36;8.63;;;4.78;;
32946;SDS011;54465;51.230;22.504;2023-04-23T02:03:37;7.63;;;4.32;;
32946;SDS011;54465;51.230;22.504;2023-04-23T02:08:37;9.02;;;4.43;;
32946;SDS011;54465;51.230;22.504;2023-04-23T02:13:38;8.40;;;4.30;;
32946;SDS011;54465;51.230;22.504;2023-04-23T02:18:39;9.25;;;4.07;;
32946;SDS011;54465;51.230;22.504;2023-04-23T02:23:40;7.78;;;4.10;;
32946;SDS011;54465;51.230;22.504;2023-04-23T02:28:40;7.80;;;4.13;;
32946;SDS011;54465;51.230;22.504;2023-04-23T02:33:41;8.25;;;4.30;;
32946;SDS011;54465;51.230;22.504;2023-04-23T02:38:41;5.57;;;3.28;;
32946;SDS011;54465;51.230;22.504;2023-04-23T02:43:43;5.55;;;3.35;;
32946;SDS011;54465;51.230;22.504;2023-04-23T02:48:44;5.97;;;3.38;;
32946;SDS011;54465;51.230;22.504;2023-04-23T02:53:45;5.30;;;3.22;;
32946;SDS011;54465;51.230;22.504;2023-04-23T02:58:45;6.95;;;4.30;;
32946;SDS011;54465;51.230;22.504;2023-04-23T03:03:46;9.15;;;3.60;;
32946;SDS011;54465;51.230;22.504;2023-04-23T03:08:46;6.57;;;4.22;;
32946;SDS011;54465;51.230;22.504;2023-04-23T03:13:47;6.03;;;3.72;;
32946;SDS011;54465;51.230;22.504;2023-04-23T03:18:47;7.03;;;3.30;;
32946;SDS011;54465;51.230;22.504;2023-04-23T03:23:48;4.70;;;3.38;;
32946;SDS011;54465;51.230;22.504;2023-04-23T03:28:50;5.93;;;3.67;;
32946;SDS011;54465;51.230;22.504;2023-04-23T03:33:50;7.72;;;3.53;;
32946;SDS011;54465;51.230;22.504;2023-04-23T03:38:57;8.40;;;3.53;;
32946;SDS011;54465;51.230;22.504;2023-04-23T03:43:59;6.95;;;3.50;;
32946;SDS011;54465;51.230;22.504;2023-04-23T03:49:15;7.78;;;3.97;;
32946;SDS011;54465;51.230;22.504;2023-04-23T03:54:16;5.90;;;3.58;;
32946;SDS011;54465;51.230;22.504;2023-04-23T03:59:35;7.05;;;3.95;;
32946;SDS011;54465;51.230;22.504;2023-04-23T04:04:36;7.65;;;4.10;;
32946;SDS011;54465;51.230;22.504;2023-04-23T04:09:37;6.00;;;4.10;;
32946;SDS011;54465;51.230;22.504;2023-04-23T04:14:38;7.93;;;4.53;;
32946;SDS011;54465;51.230;22.504;2023-04-23T04:19:39;13.02;;;4.43;;
32946;SDS011;54465;51.230;22.504;2023-04-23T04:24:39;7.60;;;3.88;;
32946;SDS011;54465;51.230;22.504;2023-04-23T04:29:40;7.60;;;4.30;;
32946;SDS011;54465;51.230;22.504;2023-04-23T04:34:41;7.40;;;4.07;;
32946;SDS011;54465;51.230;22.504;2023-04-23T04:39:42;5.80;;;3.50;;
32946;SDS011;54465;51.230;22.504;2023-04-23T04:44:43;7.10;;;4.25;;
32946;SDS011;54465;51.230;22.504;2023-04-23T04:49:43;5.43;;;3.88;;
32946;SDS011;54465;51.230;22.504;2023-04-23T04:54:44;7.82;;;3.83;;
32946;SDS011;54465;51.230;22.504;2023-04-23T04:59:45;5.97;;;4.53;;
32946;SDS011;54465;51.230;22.504;2023-04-23T05:04:46;7.43;;;4.32;;
32946;SDS011;54465;51.230;22.504;2023-04-23T05:09:46;6.78;;;4.25;;
32946;SDS011;54465;51.230;22.504;2023-04-23T05:14:47;6.28;;;3.80;;
32946;SDS011;54465;51.230;22.504;2023-04-23T05:19:47;8.00;;;3.92;;
32946;SDS011;54465;51.230;22.504;2023-04-23T05:24:48;5.22;;;3.40;;
32946;SDS011;54465;51.230;22.504;2023-04-23T05:29:48;6.90;;;4.22;;
32946;SDS011;54465;51.230;22.504;2023-04-23T05:34:49;6.68;;;4.18;;
32946;SDS011;54465;51.230;22.504;2023-04-23T05:39:49;5.10;;;3.72;;
32946;SDS011;54465;51.230;22.504;2023-04-23T05:44:49;7.00;;;3.80;;
32946;SDS011;54465;51.230;22.504;2023-04-23T05:49:50;5.80;;;3.85;;
32946;SDS011;54465;51.230;22.504;2023-04-23T05:54:51;10.40;;;3.90;;
32946;SDS011;54465;51.230;22.504;2023-04-23T05:59:51;5.93;;;3.60;;
32946;SDS011;54465;51.230;22.504;2023-04-23T06:04:52;6.15;;;3.50;;
32946;SDS011;54465;51.230;22.504;2023-04-23T06:09:52;7.10;;;3.13;;
32946;SDS011;54465;51.230;22.504;2023-04-23T06:14:53;6.57;;;3.05;;
32946;SDS011;54465;51.230;22.504;2023-04-23T06:19:53;4.18;;;2.72;;
32946;SDS011;54465;51.230;22.504;2023-04-23T06:24:54;5.75;;;2.63;;
32946;SDS011;54465;51.230;22.504;2023-04-23T06:29:55;4.13;;;3.00;;
32946;SDS011;54465;51.230;22.504;2023-04-23T06:34:56;5.53;;;2.53;;
32946;SDS011;54465;51.230;22.504;2023-04-23T06:39:57;5.03;;;2.50;;
32946;SDS011;54465;51.230;22.504;2023-04-23T06:44:58;3.95;;;2.38;;
32946;SDS011;54465;51.230;22.504;2023-04-23T06:50:03;3.97;;;2.05;;
32946;SDS011;54465;51.230;22.504;2023-04-23T06:55:05;3.53;;;2.17;;
32946;SDS011;54465;51.230;22.504;2023-04-23T07:00:06;3.67;;;2.05;;
32946;SDS011;54465;51.230;22.504;2023-04-23T07:05:11;3.40;;;2.10;;
32946;SDS011;54465;51.230;22.504;2023-04-23T07:10:12;2.85;;;1.95;;
32946;SDS011;54465;51.230;22.504;2023-04-23T07:15:12;2.97;;;1.95;;
32946;SDS011;54465;51.230;22.504;2023-04-23T07:20:13;2.78;;;2.00;;
32946;SDS011;54465;51.230;22.504;2023-04-23T07:25:14;3.85;;;2.05;;
32946;SDS011;54465;51.230;22.504;2023-04-23T07:30:15;5.32;;;1.77;;
32946;SDS011;54465;51.230;22.504;2023-04-23T07:35:16;3.47;;;1.65;;
32946;SDS011;54465;51.230;22.504;2023-04-23T07:40:17;3.28;;;1.67;;
32946;SDS011;54465;51.230;22.504;2023-04-23T07:45:18;2.47;;;1.50;;
32946;SDS011;54465;51.230;22.504;2023-04-23T07:50:18;2.30;;;1.52;;
32946;SDS011;54465;51.230;22.504;2023-04-23T07:55:19;2.05;;;1.60;;
32946;SDS011;54465;51.230;22.504;2023-04-23T08:00:20;2.42;;;1.45;;
32946;SDS011;54465;51.230;22.504;2023-04-23T08:05:21;1.73;;;1.20;;
32946;SDS011;54465;51.230;22.504;2023-04-23T08:10:21;3.15;;;1.75;;
32946;SDS011;54465;51.230;22.504;2023-04-23T08:15:22;2.78;;;1.67;;
32946;SDS011;54465;51.230;22.504;2023-04-23T08:20:23;3.05;;;1.58;;
32946;SDS011;54465;51.230;22.504;2023-04-23T08:25:23;2.88;;;1.55;;
32946;SDS011;54465;51.230;22.504;2023-04-23T08:30:24;2.83;;;1.30;;
32946;SDS011;54465;51.230;22.504;2023-04-23T08:35:24;3.55;;;1.48;;
32946;SDS011;54465;51.230;22.504;2023-04-23T08:40:25;2.35;;;1.30;;
32946;SDS011;54465;51.230;22.504;2023-04-23T08:45:29;3.80;;;1.33;;
32946;SDS011;54465;51.230;22.504;2023-04-23T08:50:30;4.65;;;1.00;;
32946;SDS011;54465;51.230;22.504;2023-04-23T08:55:31;3.78;;;1.70;;
32946;SDS011;54465;51.230;22.504;2023-04-23T09:00:33;2.63;;;1.17;;
32946;SDS011;54465;51.230;22.504;2023-04-23T09:05:34;3.67;;;1.65;;
32946;SDS011;54465;51.230;22.504;2023-04-23T09:10:39;4.22;;;1.92;;
32946;SDS011;54465;51.230;22.504;2023-04-23T09:15:40;3.00;;;2.28;;
32946;SDS011;54465;51.230;22.504;2023-04-23T09:20:43;10.90;;;4.38;;
32946;SDS011;54465;51.230;22.504;2023-04-23T09:25:46;6.57;;;3.47;;
32946;SDS011;54465;51.230;22.504;2023-04-23T09:30:47;4.22;;;2.20;;
32946;SDS011;54465;51.230;22.504;2023-04-23T09:35:47;6.53;;;3.42;;
32946;SDS011;54465;51.230;22.504;2023-04-23T09:40:49;2.10;;;1.25;;
32946;SDS011;54465;51.230;22.504;2023-04-23T09:45:49;2.63;;;1.30;;
32946;SDS011;54465;51.230;22.504;2023-04-23T09:50:50;3.80;;;1.92;;
32946;SDS011;54465;51.230;22.504;2023-04-23T09:55:54;3.40;;;1.42;;
32946;SDS011;54465;51.230;22.504;2023-04-23T10:00:55;2.38;;;1.42;;
32946;SDS011;54465;51.230;22.504;2023-04-23T10:06:05;3.35;;;1.52;;
32946;SDS011;54465;51.230;22.504;2023-04-23T10:11:06;4.00;;;1.70;;
32946;SDS011;54465;51.230;22.504;2023-04-23T10:16:07;2.80;;;1.80;;
32946;SDS011;54465;51.230;22.504;2023-04-23T10:21:08;2.60;;;1.38;;
32946;SDS011;54465;51.230;22.504;2023-04-23T10:26:09;1.55;;;1.42;;
32946;SDS011;54465;51.230;22.504;2023-04-23T10:31:11;2.03;;;1.75;;
32946;SDS011;54465;51.230;22.504;2023-04-23T10:36:11;1.85;;;1.42;;
32946;SDS011;54465;51.230;22.504;2023-04-23T10:41:12;3.75;;;1.60;;
32946;SDS011;54465;51.230;22.504;2023-04-23T10:46:29;1.85;;;1.52;;
32946;SDS011;54465;51.230;22.504;2023-04-23T10:51:32;1.65;;;1.30;;
32946;SDS011;54465;51.230;22.504;2023-04-23T10:56:34;5.15;;;1.48;;
32946;SDS011;54465;51.230;22.504;2023-04-23T11:01:34;3.60;;;1.30;;
32946;SDS011;54465;51.230;22.504;2023-04-23T11:11:47;2.05;;;1.60;;
32946;SDS011;54465;51.230;22.504;2023-04-23T11:16:47;2.35;;;1.40;;
32946;SDS011;54465;51.230;22.504;2023-04-23T11:21:55;2.17;;;1.60;;
32946;SDS011;54465;51.230;22.504;2023-04-23T11:27:06;2.42;;;1.52;;
32946;SDS011;54465;51.230;22.504;2023-04-23T11:32:16;2.22;;;1.55;;
32946;SDS011;54465;51.230;22.504;2023-04-23T11:37:17;3.90;;;1.20;;
32946;SDS011;54465;51.230;22.504;2023-04-23T11:42:17;2.17;;;1.70;;
32946;SDS011;54465;51.230;22.504;2023-04-23T11:47:21;2.15;;;1.50;;
32946;SDS011;54465;51.230;22.504;2023-04-23T11:52:25;2.40;;;1.50;;
32946;SDS011;54465;51.230;22.504;2023-04-23T11:57:26;2.00;;;1.70;;
32946;SDS011;54465;51.230;22.504;2023-04-23T12:02:26;2.75;;;1.75;;
32946;SDS011;54465;51.230;22.504;2023-04-23T12:07:31;2.85;;;1.63;;
32946;SDS011;54465;51.230;22.504;2023-04-23T12:12:32;7.25;;;2.08;;
32946;SDS011;54465;51.230;22.504;2023-04-23T12:17:34;2.30;;;1.70;;
32946;SDS011;54465;51.230;22.504;2023-04-23T12:22:35;1.35;;;1.25;;
32946;SDS011;54465;51.230;22.504;2023-04-23T12:27:39;2.80;;;1.67;;
32946;SDS011;54465;51.230;22.504;2023-04-23T12:32:40;2.45;;;1.58;;
32946;SDS011;54465;51.230;22.504;2023-04-23T12:37:40;3.30;;;1.60;;
32946;SDS011;54465;51.230;22.504;2023-04-23T12:42:41;2.78;;;1.75;;
32946;SDS011;54465;51.230;22.504;2023-04-23T12:47:41;3.70;;;2.05;;
32946;SDS011;54465;51.230;22.504;2023-04-23T12:52:42;1.92;;;1.65;;
32946;SDS011;54465;51.230;22.504;2023-04-23T12:57:42;3.90;;;1.60;;
32946;SDS011;54465;51.230;22.504;2023-04-23T13:02:43;4.13;;;1.85;;
32946;SDS011;54465;51.230;22.504;2023-04-23T13:07:43;2.25;;;1.52;;
32946;SDS011;54465;51.230;22.504;2023-04-23T13:12:44;2.00;;;1.70;;
32946;SDS011;54465;51.230;22.504;2023-04-23T13:17:44;2.33;;;1.58;;
32946;SDS011;54465;51.230;22.504;2023-04-23T13:22:45;3.10;;;1.90;;
32946;SDS011;54465;51.230;22.504;2023-04-23T13:27:45;4.78;;;2.00;;
32946;SDS011;54465;51.230;22.504;2023-04-23T13:32:46;3.15;;;1.60;;
32946;SDS011;54465;51.230;22.504;2023-04-23T13:37:46;2.80;;;1.95;;
32946;SDS011;54465;51.230;22.504;2023-04-23T13:42:47;2.55;;;1.75;;
32946;SDS011;54465;51.230;22.504;2023-04-23T13:47:49;4.15;;;1.88;;
32946;SDS011;54465;51.230;22.504;2023-04-23T13:52:50;2.55;;;1.98;;
32946;SDS011;54465;51.230;22.504;2023-04-23T13:57:50;3.38;;;2.08;;
32946;SDS011;54465;51.230;22.504;2023-04-23T14:02:51;2.60;;;1.50;;
32946;SDS011;54465;51.230;22.504;2023-04-23T14:07:51;2.00;;;1.67;;
32946;SDS011;54465;51.230;22.504;2023-04-23T14:12:52;2.35;;;1.70;;
32946;SDS011;54465;51.230;22.504;2023-04-23T14:17:53;2.20;;;1.63;;
32946;SDS011;54465;51.230;22.504;2023-04-23T14:23:00;2.45;;;1.80;;
32946;SDS011;54465;51.230;22.504;2023-04-23T14:28:05;3.47;;;1.87;;
32946;SDS011;54465;51.230;22.504;2023-04-23T14:33:21;2.00;;;1.70;;
32946;SDS011;54465;51.230;22.504;2023-04-23T14:38:22;2.47;;;1.75;;
32946;SDS011;54465;51.230;22.504;2023-04-23T14:43:22;4.40;;;1.83;;
32946;SDS011;54465;51.230;22.504;2023-04-23T14:48:23;3.33;;;1.83;;
32946;SDS011;54465;51.230;22.504;2023-04-23T14:53:23;2.03;;;1.88;;
32946;SDS011;54465;51.230;22.504;2023-04-23T14:58:24;2.83;;;2.05;;
32946;SDS011;54465;51.230;22.504;2023-04-23T15:03:27;2.20;;;1.85;;
32946;SDS011;54465;51.230;22.504;2023-04-23T15:08:30;2.28;;;1.80;;
32946;SDS011;54465;51.230;22.504;2023-04-23T15:13:38;4.78;;;1.80;;
32946;SDS011;54465;51.230;22.504;2023-04-23T15:18:44;2.80;;;1.75;;
32946;SDS011;54465;51.230;22.504;2023-04-23T15:23:44;4.07;;;1.83;;
32946;SDS011;54465;51.230;22.504;2023-04-23T15:28:45;2.10;;;1.90;;
32946;SDS011;54465;51.230;22.504;2023-04-23T15:33:46;3.85;;;1.98;;
32946;SDS011;54465;51.230;22.504;2023-04-23T15:38:47;3.03;;;2.03;;
32946;SDS011;54465;51.230;22.504;2023-04-23T15:43:47;2.22;;;1.85;;
32946;SDS011;54465;51.230;22.504;2023-04-23T15:48:49;2.50;;;1.90;;
32946;SDS011;54465;51.230;22.504;2023-04-23T15:53:49;1.60;;;1.50;;
32946;SDS011;54465;51.230;22.504;2023-04-23T15:58:50;2.38;;;1.85;;
32946;SDS011;54465;51.230;22.504;2023-04-23T16:03:51;2.17;;;1.98;;
32946;SDS011;54465;51.230;22.504;2023-04-23T16:08:51;3.05;;;1.70;;
32946;SDS011;54465;51.230;22.504;2023-04-23T16:13:51;5.32;;;1.50;;
32946;SDS011;54465;51.230;22.504;2023-04-23T16:18:52;2.55;;;1.92;;
32946;SDS011;54465;51.230;22.504;2023-04-23T16:23:53;2.10;;;1.63;;
32946;SDS011;54465;51.230;22.504;2023-04-23T16:28:53;2.33;;;1.85;;
32946;SDS011;54465;51.230;22.504;2023-04-23T16:33:54;5.03;;;1.85;;
32946;SDS011;54465;51.230;22.504;2023-04-23T16:38:55;2.25;;;1.92;;
32946;SDS011;54465;51.230;22.504;2023-04-23T16:43:56;2.80;;;1.60;;
32946;SDS011;54465;51.230;22.504;2023-04-23T16:48:56;2.53;;;1.92;;
32946;SDS011;54465;51.230;22.504;2023-04-23T16:53:57;2.85;;;1.75;;
32946;SDS011;54465;51.230;22.504;2023-04-23T16:58:57;2.67;;;1.70;;
32946;SDS011;54465;51.230;22.504;2023-04-23T17:03:58;3.33;;;1.85;;
32946;SDS011;54465;51.230;22.504;2023-04-23T17:08:59;3.20;;;1.90;;
32946;SDS011;54465;51.230;22.504;2023-04-23T17:14:01;3.17;;;2.10;;
32946;SDS011;54465;51.230;22.504;2023-04-23T17:19:01;4.75;;;2.22;;
32946;SDS011;54465;51.230;22.504;2023-04-23T17:24:02;2.97;;;1.95;;
32946;SDS011;54465;51.230;22.504;2023-04-23T17:29:02;5.80;;;1.85;;
32946;SDS011;54465;51.230;22.504;2023-04-23T17:34:03;3.95;;;2.08;;
32946;SDS011;54465;51.230;22.504;2023-04-23T17:39:03;2.85;;;2.20;;
32946;SDS011;54465;51.230;22.504;2023-04-23T17:44:04;3.38;;;1.92;;
32946;SDS011;54465;51.230;22.504;2023-04-23T17:49:04;4.53;;;1.90;;
32946;SDS011;54465;51.230;22.504;2023-04-23T17:54:05;3.83;;;2.10;;
32946;SDS011;54465;51.230;22.504;2023-04-23T17:59:06;3.28;;;2.25;;
32946;SDS011;54465;51.230;22.504;2023-04-23T18:04:07;3.90;;;2.53;;
32946;SDS011;54465;51.230;22.504;2023-04-23T18:09:07;5.35;;;2.92;;
32946;SDS011;54465;51.230;22.504;2023-04-23T18:14:08;4.80;;;2.90;;
32946;SDS011;54465;51.230;22.504;2023-04-23T18:19:08;11.95;;;5.60;;
32946;SDS011;54465;51.230;22.504;2023-04-23T18:24:09;6.95;;;4.20;;
32946;SDS011;54465;51.230;22.504;2023-04-23T18:29:09;5.75;;;3.42;;
32946;SDS011;54465;51.230;22.504;2023-04-23T18:34:10;8.18;;;3.38;;
32946;SDS011;54465;51.230;22.504;2023-04-23T18:39:15;11.38;;;3.33;;
32946;SDS011;54465;51.230;22.504;2023-04-23T18:44:16;9.00;;;3.50;;
32946;SDS011;54465;51.230;22.504;2023-04-23T18:54:30;5.13;;;3.25;;
32946;SDS011;54465;51.230;22.504;2023-04-23T18:59:31;9.60;;;3.65;;
32946;SDS011;54465;51.230;22.504;2023-04-23T19:04:34;8.73;;;3.78;;
32946;SDS011;54465;51.230;22.504;2023-04-23T19:09:35;4.80;;;3.53;;
32946;SDS011;54465;51.230;22.504;2023-04-23T19:14:35;4.88;;;2.97;;
32946;SDS011;54465;51.230;22.504;2023-04-23T19:19:36;5.53;;;3.17;;
32946;SDS011;54465;51.230;22.504;2023-04-23T19:24:37;5.25;;;2.97;;
32946;SDS011;54465;51.230;22.504;2023-04-23T19:29:37;5.15;;;3.13;;
32946;SDS011;54465;51.230;22.504;2023-04-23T19:34:38;6.65;;;3.00;;
32946;SDS011;54465;51.230;22.504;2023-04-23T19:39:39;6.10;;;3.25;;
32946;SDS011;54465;51.230;22.504;2023-04-23T19:44:39;7.05;;;2.70;;
32946;SDS011;54465;51.230;22.504;2023-04-23T19:49:40;4.47;;;2.30;;
32946;SDS011;54465;51.230;22.504;2023-04-23T19:54:40;4.57;;;2.70;;
32946;SDS011;54465;51.230;22.504;2023-04-23T19:59:42;4.15;;;2.92;;
32946;SDS011;54465;51.230;22.504;2023-04-23T20:04:43;7.75;;;2.97;;
32946;SDS011;54465;51.230;22.504;2023-04-23T20:09:44;9.65;;;3.17;;
32946;SDS011;54465;51.230;22.504;2023-04-23T20:14:45;4.22;;;2.70;;
32946;SDS011;54465;51.230;22.504;2023-04-23T20:19:45;6.20;;;3.03;;
32946;SDS011;54465;51.230;22.504;2023-04-23T20:24:46;6.55;;;3.15;;
32946;SDS011;54465;51.230;22.504;2023-04-23T20:29:48;3.85;;;2.60;;
32946;SDS011;54465;51.230;22.504;2023-04-23T20:34:48;5.18;;;2.38;;
32946;SDS011;54465;51.230;22.504;2023-04-23T20:39:48;7.88;;;2.70;;
32946;SDS011;54465;51.230;22.504;2023-04-23T20:44:50;5.15;;;2.83;;
32946;SDS011;54465;51.230;22.504;2023-04-23T20:49:51;4.57;;;2.85;;
32946;SDS011;54465;51.230;22.504;2023-04-23T20:54:51;4.35;;;2.42;;
32946;SDS011;54465;51.230;22.504;2023-04-23T20:59:52;4.32;;;2.55;;
32946;SDS011;54465;51.230;22.504;2023-04-23T21:04:52;3.85;;;2.55;;
32946;SDS011;54465;51.230;22.504;2023-04-23T21:09:53;3.47;;;2.40;;
32946;SDS011;54465;51.230;22.504;2023-04-23T21:14:53;4.13;;;2.65;;
32946;SDS011;54465;51.230;22.504;2023-04-23T21:19:54;4.13;;;2.88;;
32946;SDS011;54465;51.230;22.504;2023-04-23T21:24:54;5.63;;;2.83;;
32946;SDS011;54465;51.230;22.504;2023-04-23T21:29:57;5.95;;;3.20;;
32946;SDS011;54465;51.230;22.504;2023-04-23T21:34:59;7.45;;;3.50;;
32946;SDS011;54465;51.230;22.504;2023-04-23T21:40:00;5.30;;;3.42;;
32946;SDS011;54465;51.230;22.504;2023-04-23T21:45:00;4.68;;;3.17;;
32946;SDS011;54465;51.230;22.504;2023-04-23T21:50:01;5.43;;;3.30;;
32946;SDS011;54465;51.230;22.504;2023-04-23T21:55:05;6.38;;;2.70;;
32946;SDS011;54465;51.230;22.504;2023-04-23T22:00:06;3.28;;;2.60;;
32946;SDS011;54465;51.230;22.504;2023-04-23T22:10:13;4.28;;;2.50;;
32946;SDS011;54465;51.230;22.504;2023-04-23T22:15:15;4.65;;;2.42;;
32946;SDS011;54465;51.230;22.504;2023-04-23T22:20:17;2.55;;;2.22;;
32946;SDS011;54465;51.230;22.504;2023-04-23T22:25:18;3.70;;;2.15;;
32946;SDS011;54465;51.230;22.504;2023-04-23T22:30:18;3.53;;;2.45;;
32946;SDS011;54465;51.230;22.504;2023-04-23T22:35:19;3.63;;;2.13;;
32946;SDS011;54465;51.230;22.504;2023-04-23T22:40:20;3.55;;;2.10;;
32946;SDS011;54465;51.230;22.504;2023-04-23T22:45:20;6.45;;;1.98;;
32946;SDS011;54465;51.230;22.504;2023-04-23T22:50:21;3.03;;;2.20;;
32946;SDS011;54465;51.230;22.504;2023-04-23T22:55:21;3.88;;;2.00;;
32946;SDS011;54465;51.230;22.504;2023-04-23T23:00:22;6.90;;;2.03;;
32946;SDS011;54465;51.230;22.504;2023-04-23T23:05:22;3.15;;;2.40;;
32946;SDS011;54465;51.230;22.504;2023-04-23T23:10:23;3.60;;;2.08;;
32946;SDS011;54465;51.230;22.504;2023-04-23T23:15:23;2.65;;;1.92;;
32946;SDS011;54465;51.230;22.504;2023-04-23T23:20:24;5.78;;;2.30;;
32946;SDS011;54465;51.230;22.504;2023-04-23T23:25:25;3.80;;;2.10;;
32946;SDS011;54465;51.230;22.504;2023-04-23T23:30:26;2.80;;;2.33;;
32946;SDS011;54465;51.230;22.504;2023-04-23T23:35:26;6.05;;;2.25;;
32946;SDS011;54465;51.230;22.504;2023-04-23T23:40:27;3.72;;;2.00;;
32946;SDS011;54465;51.230;22.504;2023-04-23T23:45:27;3.00;;;2.33;;
32946;SDS011;54465;51.230;22.504;2023-04-23T23:50:28;3.50;;;2.00;;
32946;SDS011;54465;51.230;22.504;2023-04-23T23:55:28;2.30;;;1.85;;
